sensor_id;sensor_type;location;lat;lon;timestamp;pressure;altitude;pressure_sealevel;temperature;humidity
9277;BME280;4676;42.678;23.244;2023-04-08T00:02:20;94141.75;;;4.64;nan
9277;BME280;4676;42.678;23.244;2023-04-08T00:04:47;94143.31;;;4.71;nan
9277;BME280;4676;42.678;23.244;2023-04-08T00:07:13;94140.88;;;4.65;nan
9277;BME280;4676;42.678;23.244;2023-04-08T00:09:42;94140.84;;;4.67;nan
9277;BME280;4676;42.678;23.244;2023-04-08T00:12:08;94147.63;;;4.62;nan
9277;BME280;4676;42.678;23.244;2023-04-08T00:14:35;94142.66;;;4.60;nan
9277;BME280;4676;42.678;23.244;2023-04-08T00:17:02;94153.53;;;4.58;nan
9277;BME280;4676;42.678;23.244;2023-04-08T00:19:30;94136.06;;;4.53;nan
9277;BME280;4676;42.678;23.244;2023-04-08T00:21:56;94138.69;;;4.45;nan
9277;BME280;4676;42.678;23.244;2023-04-08T00:24:23;94147.84;;;4.48;nan
9277;BME280;4676;42.678;23.244;2023-04-08T00:26:51;94144.44;;;4.52;nan
9277;BME280;4676;42.678;23.244;2023-04-08T00:29:18;94142.84;;;4.48;nan
9277;BME280;4676;42.678;23.244;2023-04-08T00:31:45;94140.38;;;4.45;nan
9277;BME280;4676;42.678;23.244;2023-04-08T00:34:12;94134.56;;;4.43;nan
9277;BME280;4676;42.678;23.244;2023-04-08T00:36:38;94140.44;;;4.40;nan
9277;BME280;4676;42.678;23.244;2023-04-08T00:39:06;94136.31;;;4.39;nan
9277;BME280;4676;42.678;23.244;2023-04-08T00:41:32;94140.53;;;4.36;nan
9277;BME280;4676;42.678;23.244;2023-04-08T00:44:01;94136.47;;;4.29;nan
9277;BME280;4676;42.678;23.244;2023-04-08T00:46:27;94143.16;;;4.27;nan
9277;BME280;4676;42.678;23.244;2023-04-08T00:48:55;94144.72;;;4.35;nan
9277;BME280;4676;42.678;23.244;2023-04-08T00:51:22;94141.72;;;4.66;nan
9277;BME280;4676;42.678;23.244;2023-04-08T00:53:48;94139.06;;;4.73;nan
9277;BME280;4676;42.678;23.244;2023-04-08T00:56:15;94140.94;;;4.62;nan
9277;BME280;4676;42.678;23.244;2023-04-08T00:58:42;94149.66;;;4.40;nan
9277;BME280;4676;42.678;23.244;2023-04-08T01:01:13;94146.50;;;4.27;nan
9277;BME280;4676;42.678;23.244;2023-04-08T01:03:45;94145.75;;;4.22;nan
9277;BME280;4676;42.678;23.244;2023-04-08T01:06:21;94148.28;;;4.21;nan
9277;BME280;4676;42.678;23.244;2023-04-08T01:08:52;94153.41;;;4.15;nan
9277;BME280;4676;42.678;23.244;2023-04-08T01:11:19;94150.91;;;4.15;nan
9277;BME280;4676;42.678;23.244;2023-04-08T01:13:48;94150.91;;;4.15;nan
9277;BME280;4676;42.678;23.244;2023-04-08T01:16:18;94159.28;;;4.12;nan
9277;BME280;4676;42.678;23.244;2023-04-08T01:18:47;94157.53;;;4.16;nan
9277;BME280;4676;42.678;23.244;2023-04-08T01:21:17;94154.25;;;4.12;nan
9277;BME280;4676;42.678;23.244;2023-04-08T01:24:02;94145.94;;;4.10;nan
9277;BME280;4676;42.678;23.244;2023-04-08T01:26:33;94156.81;;;4.09;nan
9277;BME280;4676;42.678;23.244;2023-04-08T01:29:02;94159.31;;;4.09;nan
9277;BME280;4676;42.678;23.244;2023-04-08T01:31:30;94157.59;;;4.13;nan
9277;BME280;4676;42.678;23.244;2023-04-08T01:33:58;94156.75;;;4.12;nan
9277;BME280;4676;42.678;23.244;2023-04-08T01:36:27;94155.09;;;4.14;nan
9277;BME280;4676;42.678;23.244;2023-04-08T01:38:55;94153.34;;;4.18;nan
9277;BME280;4676;42.678;23.244;2023-04-08T01:41:22;94152.47;;;4.19;nan
9277;BME280;4676;42.678;23.244;2023-04-08T01:43:51;94157.50;;;4.20;nan
9277;BME280;4676;42.678;23.244;2023-04-08T01:46:19;94155.81;;;4.19;nan
9277;BME280;4676;42.678;23.244;2023-04-08T01:48:47;94152.47;;;4.22;nan
9277;BME280;4676;42.678;23.244;2023-04-08T01:51:15;94154.03;;;4.26;nan
9277;BME280;4676;42.678;23.244;2023-04-08T01:53:42;94166.56;;;4.27;nan
9277;BME280;4676;42.678;23.244;2023-04-08T01:56:11;94134.13;;;4.17;nan
9277;BME280;4676;42.678;23.244;2023-04-08T01:58:41;94167.25;;;4.38;nan
9277;BME280;4676;42.678;23.244;2023-04-08T02:01:13;94170.72;;;4.30;nan
9277;BME280;4676;42.678;23.244;2023-04-08T02:03:44;94171.44;;;4.38;nan
9277;BME280;4676;42.678;23.244;2023-04-08T02:06:12;94176.44;;;4.38;nan
9277;BME280;4676;42.678;23.244;2023-04-08T02:08:38;94178.06;;;4.40;nan
9277;BME280;4676;42.678;23.244;2023-04-08T02:11:05;94177.34;;;4.35;nan
9277;BME280;4676;42.678;23.244;2023-04-08T02:13:32;94178.97;;;4.36;nan
9277;BME280;4676;42.678;23.244;2023-04-08T02:16:03;94174.09;;;4.27;nan
9277;BME280;4676;42.678;23.244;2023-04-08T02:18:33;94182.47;;;4.26;nan
9277;BME280;4676;42.678;23.244;2023-04-08T02:21:07;94183.28;;;4.28;nan
9277;BME280;4676;42.678;23.244;2023-04-08T02:23:38;94183.41;;;4.21;nan
9277;BME280;4676;42.678;23.244;2023-04-08T02:26:08;94181.63;;;4.26;nan
9277;BME280;4676;42.678;23.244;2023-04-08T02:28:39;94185.91;;;4.19;nan
9277;BME280;4676;42.678;23.244;2023-04-08T02:31:09;94179.97;;;4.28;nan
9277;BME280;4676;42.678;23.244;2023-04-08T02:33:39;94177.50;;;4.23;nan
9277;BME280;4676;42.678;23.244;2023-04-08T02:36:07;94180.84;;;4.22;nan
9277;BME280;4676;42.678;23.244;2023-04-08T02:38:34;94186.66;;;4.26;nan
9277;BME280;4676;42.678;23.244;2023-04-08T02:41:01;94169.25;;;4.17;nan
9277;BME280;4676;42.678;23.244;2023-04-08T02:43:27;94188.41;;;4.21;nan
9277;BME280;4676;42.678;23.244;2023-04-08T02:45:57;94175.94;;;4.16;nan
9277;BME280;4676;42.678;23.244;2023-04-08T02:48:24;94183.41;;;4.21;nan
9277;BME280;4676;42.678;23.244;2023-04-08T02:50:52;94170.75;;;4.28;nan
9277;BME280;4676;42.678;23.244;2023-04-08T02:53:19;94169.09;;;4.26;nan
9277;BME280;4676;42.678;23.244;2023-04-08T02:55:46;94183.38;;;4.22;nan
9277;BME280;4676;42.678;23.244;2023-04-08T02:58:12;94179.06;;;4.30;nan
9277;BME280;4676;42.678;23.244;2023-04-08T03:00:39;94180.00;;;4.25;nan
9277;BME280;4676;42.678;23.244;2023-04-08T03:03:06;94180.78;;;4.28;nan
9277;BME280;4676;42.678;23.244;2023-04-08T03:05:32;94180.91;;;4.19;nan
9277;BME280;4676;42.678;23.244;2023-04-08T03:08:00;94180.00;;;4.25;nan
9277;BME280;4676;42.678;23.244;2023-04-08T03:10:27;94181.31;;;4.47;nan
9277;BME280;4676;42.678;23.244;2023-04-08T03:12:54;94133.31;;;4.16;nan
9277;BME280;4676;42.678;23.244;2023-04-08T03:15:21;94181.59;;;4.30;nan
9277;BME280;4676;42.678;23.244;2023-04-08T03:17:47;94177.47;;;4.26;nan
9277;BME280;4676;42.678;23.244;2023-04-08T03:20:14;94175.88;;;4.21;nan
9277;BME280;4676;42.678;23.244;2023-04-08T03:22:41;94181.56;;;4.32;nan
9277;BME280;4676;42.678;23.244;2023-04-08T03:25:09;94184.97;;;4.26;nan
9277;BME280;4676;42.678;23.244;2023-04-08T03:27:36;94175.84;;;4.24;nan
9277;BME280;4676;42.678;23.244;2023-04-08T03:30:03;94156.53;;;4.27;nan
9277;BME280;4676;42.678;23.244;2023-04-08T03:32:31;94181.41;;;4.41;nan
9277;BME280;4676;42.678;23.244;2023-04-08T03:34:58;94181.53;;;4.33;nan
9277;BME280;4676;42.678;23.244;2023-04-08T03:37:24;94182.47;;;4.26;nan
9277;BME280;4676;42.678;23.244;2023-04-08T03:39:52;94184.97;;;4.26;nan
9277;BME280;4676;42.678;23.244;2023-04-08T03:42:20;94186.66;;;4.26;nan
9277;BME280;4676;42.678;23.244;2023-04-08T03:44:46;94189.19;;;4.24;nan
9277;BME280;4676;42.678;23.244;2023-04-08T03:47:13;94181.69;;;4.23;nan
9277;BME280;4676;42.678;23.244;2023-04-08T03:49:40;94184.19;;;4.23;nan
9277;BME280;4676;42.678;23.244;2023-04-08T03:52:06;94185.06;;;4.22;nan
9277;BME280;4676;42.678;23.244;2023-04-08T03:54:33;94179.22;;;4.20;nan
9277;BME280;4676;42.678;23.244;2023-04-08T03:57:00;94182.63;;;4.17;nan
9277;BME280;4676;42.678;23.244;2023-04-08T03:59:28;94175.88;;;4.19;nan
9277;BME280;4676;42.678;23.244;2023-04-08T04:01:55;94176.78;;;4.17;nan
9277;BME280;4676;42.678;23.244;2023-04-08T04:04:22;94171.75;;;4.17;nan
9277;BME280;4676;42.678;23.244;2023-04-08T04:06:49;94180.06;;;4.19;nan
9277;BME280;4676;42.678;23.244;2023-04-08T04:09:16;94175.06;;;4.19;nan
9277;BME280;4676;42.678;23.244;2023-04-08T04:11:43;94177.56;;;4.19;nan
9277;BME280;4676;42.678;23.244;2023-04-08T04:14:09;94180.91;;;4.19;nan
9277;BME280;4676;42.678;23.244;2023-04-08T04:16:37;94184.25;;;4.20;nan
9277;BME280;4676;42.678;23.244;2023-04-08T04:19:04;94190.09;;;4.22;nan
9277;BME280;4676;42.678;23.244;2023-04-08T04:21:31;94186.66;;;4.27;nan
9277;BME280;4676;42.678;23.244;2023-04-08T04:23:58;94192.50;;;4.26;nan
9277;BME280;4676;42.678;23.244;2023-04-08T04:26:25;94199.25;;;4.23;nan
9277;BME280;4676;42.678;23.244;2023-04-08T04:28:51;94195.78;;;4.31;nan
9277;BME280;4676;42.678;23.244;2023-04-08T04:31:18;94195.84;;;4.28;nan
9277;BME280;4676;42.678;23.244;2023-04-08T04:33:47;94198.88;;;4.47;nan
9277;BME280;4676;42.678;23.244;2023-04-08T04:36:14;94199.03;;;4.39;nan
9277;BME280;4676;42.678;23.244;2023-04-08T04:38:42;94193.91;;;4.44;nan
9277;BME280;4676;42.678;23.244;2023-04-08T04:41:09;94202.34;;;4.40;nan
9277;BME280;4676;42.678;23.244;2023-04-08T04:43:35;94197.41;;;4.35;nan
9277;BME280;4676;42.678;23.244;2023-04-08T04:46:03;94199.97;;;4.29;nan
9277;BME280;4676;42.678;23.244;2023-04-08T04:48:33;94194.91;;;4.35;nan
9277;BME280;4676;42.678;23.244;2023-04-08T04:51:01;94198.19;;;4.37;nan
9277;BME280;4676;42.678;23.244;2023-04-08T04:53:28;94207.41;;;4.37;nan
9277;BME280;4676;42.678;23.244;2023-04-08T04:55:55;94202.22;;;4.49;nan
9277;BME280;4676;42.678;23.244;2023-04-08T04:58:22;94203.88;;;4.50;nan
9277;BME280;4676;42.678;23.244;2023-04-08T05:00:49;94206.19;;;4.62;nan
9277;BME280;4676;42.678;23.244;2023-04-08T05:03:15;94204.56;;;4.58;nan
9277;BME280;4676;42.678;23.244;2023-04-08T05:05:42;94200.44;;;4.56;nan
9277;BME280;4676;42.678;23.244;2023-04-08T05:08:10;94206.91;;;4.69;nan
9277;BME280;4676;42.678;23.244;2023-04-08T05:10:39;94206.78;;;4.76;nan
9277;BME280;4676;42.678;23.244;2023-04-08T05:13:06;94153.00;;;4.40;nan
9277;BME280;4676;42.678;23.244;2023-04-08T05:15:33;94210.25;;;4.69;nan
9277;BME280;4676;42.678;23.244;2023-04-08T05:18:00;94212.69;;;4.74;nan
9277;BME280;4676;42.678;23.244;2023-04-08T05:20:27;94212.59;;;4.81;nan
9277;BME280;4676;42.678;23.244;2023-04-08T05:22:54;94199.09;;;4.87;nan
9277;BME280;4676;42.678;23.244;2023-04-08T05:25:22;94208.22;;;4.92;nan
9277;BME280;4676;42.678;23.244;2023-04-08T05:27:49;94208.94;;;4.99;nan
9277;BME280;4676;42.678;23.244;2023-04-08T05:30:16;94207.69;;;5.21;nan
9277;BME280;4676;42.678;23.244;2023-04-08T05:32:42;94206.91;;;5.18;nan
9277;BME280;4676;42.678;23.244;2023-04-08T05:35:09;94205.84;;;5.31;nan
9277;BME280;4676;42.678;23.244;2023-04-08T05:37:36;94205.75;;;5.35;nan
9277;BME280;4676;42.678;23.244;2023-04-08T05:40:03;94204.72;;;5.47;nan
9277;BME280;4676;42.678;23.244;2023-04-08T05:42:31;94207.81;;;5.60;nan
9277;BME280;4676;42.678;23.244;2023-04-08T05:44:58;94213.66;;;5.62;nan
9277;BME280;4676;42.678;23.244;2023-04-08T05:47:25;94186.28;;;5.46;nan
9277;BME280;4676;42.678;23.244;2023-04-08T05:49:52;94205.84;;;5.74;nan
9277;BME280;4676;42.678;23.244;2023-04-08T05:52:18;94207.56;;;5.73;nan
9277;BME280;4676;42.678;23.244;2023-04-08T05:54:45;94203.94;;;5.85;nan
9277;BME280;4676;42.678;23.244;2023-04-08T05:57:12;94196.13;;;6.00;nan
9277;BME280;4676;42.678;23.244;2023-04-08T05:59:40;94206.19;;;6.00;nan
9277;BME280;4676;42.678;23.244;2023-04-08T06:02:07;94200.31;;;6.01;nan
9277;BME280;4676;42.678;23.244;2023-04-08T06:04:33;94200.34;;;5.99;nan
9277;BME280;4676;42.678;23.244;2023-04-08T06:07:00;94201.16;;;6.01;nan
9277;BME280;4676;42.678;23.244;2023-04-08T06:09:28;94198.94;;;5.86;nan
9277;BME280;4676;42.678;23.244;2023-04-08T06:11:54;94196.47;;;5.83;nan
9277;BME280;4676;42.678;23.244;2023-04-08T06:14:21;94199.91;;;5.78;nan
9277;BME280;4676;42.678;23.244;2023-04-08T06:16:49;94185.94;;;5.63;nan
9277;BME280;4676;42.678;23.244;2023-04-08T06:19:17;94197.91;;;5.52;nan
9277;BME280;4676;42.678;23.244;2023-04-08T06:21:44;94196.72;;;5.70;nan
9277;BME280;4676;42.678;23.244;2023-04-08T06:24:11;94203.94;;;5.85;nan
9277;BME280;4676;42.678;23.244;2023-04-08T06:26:38;94196.28;;;5.94;nan
9277;BME280;4676;42.678;23.244;2023-04-08T06:29:04;94201.09;;;6.03;nan
9277;BME280;4676;42.678;23.244;2023-04-08T06:31:32;94206.97;;;6.03;nan
9277;BME280;4676;42.678;23.244;2023-04-08T06:34:00;94207.16;;;5.94;nan
9277;BME280;4676;42.678;23.244;2023-04-08T06:36:27;94211.22;;;6.01;nan
9277;BME280;4676;42.678;23.244;2023-04-08T06:38:53;94207.59;;;6.13;nan
9277;BME280;4676;42.678;23.244;2023-04-08T06:41:20;94203.69;;;6.00;nan
9277;BME280;4676;42.678;23.244;2023-04-08T06:43:47;94206.19;;;6.01;nan
9277;BME280;4676;42.678;23.244;2023-04-08T06:46:13;94210.16;;;6.12;nan
9277;BME280;4676;42.678;23.244;2023-04-08T06:48:40;94208.56;;;6.06;nan
9277;BME280;4676;42.678;23.244;2023-04-08T06:51:08;94214.97;;;6.21;nan
9277;BME280;4676;42.678;23.244;2023-04-08T06:53:35;94217.31;;;6.28;nan
9277;BME280;4676;42.678;23.244;2023-04-08T06:56:02;94204.88;;;6.22;nan
9277;BME280;4676;42.678;23.244;2023-04-08T06:58:29;94210.63;;;6.27;nan
9277;BME280;4676;42.678;23.244;2023-04-08T07:00:56;94219.03;;;6.26;nan
9277;BME280;4676;42.678;23.244;2023-04-08T07:03:22;94213.00;;;6.33;nan
9277;BME280;4676;42.678;23.244;2023-04-08T07:05:49;94217.03;;;6.40;nan
9277;BME280;4676;42.678;23.244;2023-04-08T07:08:17;94217.94;;;6.38;nan
9277;BME280;4676;42.678;23.244;2023-04-08T07:10:44;94213.66;;;6.41;nan
9277;BME280;4676;42.678;23.244;2023-04-08T07:13:10;94215.00;;;6.58;nan
9277;BME280;4676;42.678;23.244;2023-04-08T07:15:37;94223.81;;;6.75;nan
9277;BME280;4676;42.678;23.244;2023-04-08T07:18:04;94225.00;;;6.96;nan
9277;BME280;4676;42.678;23.244;2023-04-08T07:20:30;94223.22;;;6.99;nan
9277;BME280;4676;42.678;23.244;2023-04-08T07:23:00;94229.13;;;6.98;nan
9277;BME280;4676;42.678;23.244;2023-04-08T07:25:28;94226.78;;;6.92;nan
9277;BME280;4676;42.678;23.244;2023-04-08T07:27:54;94229.47;;;6.83;nan
9277;BME280;4676;42.678;23.244;2023-04-08T07:30:21;94228.59;;;6.86;nan
9277;BME280;4676;42.678;23.244;2023-04-08T07:32:48;94199.09;;;6.56;nan
9277;BME280;4676;42.678;23.244;2023-04-08T07:35:15;94235.28;;;6.87;nan
9277;BME280;4676;42.678;23.244;2023-04-08T07:37:48;94233.94;;;7.08;nan
9277;BME280;4676;42.678;23.244;2023-04-08T07:40:15;94241.91;;;7.25;nan
9277;BME280;4676;42.678;23.244;2023-04-08T07:42:43;94248.25;;;7.39;nan
9277;BME280;4676;42.678;23.244;2023-04-08T07:45:10;94245.72;;;7.39;nan
9277;BME280;4676;42.678;23.244;2023-04-08T07:47:37;94247.97;;;7.50;nan
9277;BME280;4676;42.678;23.244;2023-04-08T07:50:04;94252.06;;;7.56;nan
9277;BME280;4676;42.678;23.244;2023-04-08T07:52:31;94240.22;;;7.58;nan
9277;BME280;4676;42.678;23.244;2023-04-08T07:54:58;94256.16;;;7.90;nan
9277;BME280;4676;42.678;23.244;2023-04-08T07:57:26;94253.19;;;7.76;nan
9277;BME280;4676;42.678;23.244;2023-04-08T07:59:54;94254.75;;;7.80;nan
9277;BME280;4676;42.678;23.244;2023-04-08T08:02:21;94254.97;;;7.71;nan
9277;BME280;4676;42.678;23.244;2023-04-08T08:04:48;94256.19;;;7.58;nan
9277;BME280;4676;42.678;23.244;2023-04-08T08:07:14;94252.13;;;7.52;nan
9277;BME280;4676;42.678;23.244;2023-04-08T08:09:41;94245.59;;;7.45;nan
9277;BME280;4676;42.678;23.244;2023-04-08T08:12:08;94256.63;;;7.41;nan
9277;BME280;4676;42.678;23.244;2023-04-08T08:14:35;94263.66;;;7.61;nan
9277;BME280;4676;42.678;23.244;2023-04-08T08:19:40;94259.03;;;8.08;nan
9277;BME280;4676;42.678;23.244;2023-04-08T08:22:07;94248.66;;;8.18;nan
9277;BME280;4676;42.678;23.244;2023-04-08T08:24:34;94262.72;;;8.27;nan
9277;BME280;4676;42.678;23.244;2023-04-08T08:27:00;94256.16;;;8.50;nan
9277;BME280;4676;42.678;23.244;2023-04-08T08:29:29;94261.94;;;8.54;nan
9277;BME280;4676;42.678;23.244;2023-04-08T08:31:56;94257.88;;;8.76;nan
9277;BME280;4676;42.678;23.244;2023-04-08T08:34:22;94250.97;;;8.83;nan
9277;BME280;4676;42.678;23.244;2023-04-08T08:36:50;94257.94;;;8.75;nan
9277;BME280;4676;42.678;23.244;2023-04-08T08:39:17;94232.94;;;8.66;nan
9277;BME280;4676;42.678;23.244;2023-04-08T08:41:44;94253.94;;;8.95;nan
9277;BME280;4676;42.678;23.244;2023-04-08T08:44:10;94250.94;;;9.11;nan
9277;BME280;4676;42.678;23.244;2023-04-08T08:46:43;94251.63;;;9.40;nan
9277;BME280;4676;42.678;23.244;2023-04-08T08:49:10;94247.53;;;9.36;nan
9277;BME280;4676;42.678;23.244;2023-04-08T08:51:38;94244.16;;;8.85;nan
9277;BME280;4676;42.678;23.244;2023-04-08T08:54:07;94253.50;;;9.09;nan
9277;BME280;4676;42.678;23.244;2023-04-08T08:56:34;94253.66;;;9.29;nan
9277;BME280;4676;42.678;23.244;2023-04-08T08:59:01;94256.47;;;9.46;nan
9277;BME280;4676;42.678;23.244;2023-04-08T09:01:32;94245.78;;;9.14;nan
9277;BME280;4676;42.678;23.244;2023-04-08T09:04:10;94250.19;;;9.07;nan
9277;BME280;4676;42.678;23.244;2023-04-08T09:06:37;94227.59;;;9.02;nan
9277;BME280;4676;42.678;23.244;2023-04-08T09:09:04;94265.34;;;8.81;nan
9277;BME280;4676;42.678;23.244;2023-04-08T09:11:36;94253.78;;;9.26;nan
9277;BME280;4676;42.678;23.244;2023-04-08T09:14:04;94255.72;;;9.69;nan
9277;BME280;4676;42.678;23.244;2023-04-08T09:16:31;94253.28;;;9.91;nan
9277;BME280;4676;42.678;23.244;2023-04-08T09:19:07;94252.63;;;10.09;nan
9277;BME280;4676;42.678;23.244;2023-04-08T09:21:34;94260.88;;;10.16;nan
9277;BME280;4676;42.678;23.244;2023-04-08T09:24:01;94244.50;;;10.24;nan
9277;BME280;4676;42.678;23.244;2023-04-08T09:26:28;94260.47;;;10.71;nan
9277;BME280;4676;42.678;23.244;2023-04-08T09:29:00;94249.16;;;10.58;nan
9277;BME280;4676;42.678;23.244;2023-04-08T09:31:28;94224.03;;;10.30;nan
9277;BME280;4676;42.678;23.244;2023-04-08T09:33:57;94239.94;;;10.56;nan
9277;BME280;4676;42.678;23.244;2023-04-08T09:36:24;94246.72;;;10.77;nan
9277;BME280;4676;42.678;23.244;2023-04-08T09:38:52;94254.00;;;11.08;nan
9277;BME280;4676;42.678;23.244;2023-04-08T09:41:21;94213.22;;;11.12;nan
9277;BME280;4676;42.678;23.244;2023-04-08T09:43:49;94245.84;;;11.21;nan
9277;BME280;4676;42.678;23.244;2023-04-08T09:46:25;94236.38;;;11.05;nan
9277;BME280;4676;42.678;23.244;2023-04-08T09:49:00;94229.22;;;11.34;nan
9277;BME280;4676;42.678;23.244;2023-04-08T09:51:32;94235.34;;;11.09;nan
9277;BME280;4676;42.678;23.244;2023-04-08T09:54:02;94230.78;;;10.75;nan
9277;BME280;4676;42.678;23.244;2023-04-08T09:56:39;94231.06;;;10.67;nan
9277;BME280;4676;42.678;23.244;2023-04-08T09:59:12;94233.47;;;10.92;nan
9277;BME280;4676;42.678;23.244;2023-04-08T10:01:45;94221.94;;;11.27;nan
9277;BME280;4676;42.678;23.244;2023-04-08T10:04:14;94225.28;;;11.47;nan
9277;BME280;4676;42.678;23.244;2023-04-08T10:06:42;94224.47;;;11.47;nan
9277;BME280;4676;42.678;23.244;2023-04-08T10:09:09;94217.09;;;11.61;nan
9277;BME280;4676;42.678;23.244;2023-04-08T10:11:37;94219.44;;;11.66;nan
9277;BME280;4676;42.678;23.244;2023-04-08T10:14:04;94217.22;;;11.98;nan
9277;BME280;4676;42.678;23.244;2023-04-08T10:16:31;94229.06;;;12.18;nan
9277;BME280;4676;42.678;23.244;2023-04-08T10:19:00;94225.69;;;12.18;nan
9277;BME280;4676;42.678;23.244;2023-04-08T10:21:47;94213.66;;;12.21;nan
9277;BME280;4676;42.678;23.244;2023-04-08T10:24:14;94212.72;;;12.24;nan
9277;BME280;4676;42.678;23.244;2023-04-08T10:26:44;94213.47;;;12.26;nan
9277;BME280;4676;42.678;23.244;2023-04-08T10:29:40;94217.63;;;11.49;nan
9277;BME280;4676;42.678;23.244;2023-04-08T10:32:06;94216.72;;;11.30;nan
9277;BME280;4676;42.678;23.244;2023-04-08T10:34:50;94213.06;;;10.95;nan
9277;BME280;4676;42.678;23.244;2023-04-08T10:37:18;94206.13;;;11.00;nan
9277;BME280;4676;42.678;23.244;2023-04-08T10:39:48;94206.34;;;11.36;nan
9277;BME280;4676;42.678;23.244;2023-04-08T10:42:15;94203.47;;;11.23;nan
9277;BME280;4676;42.678;23.244;2023-04-08T10:44:43;94190.28;;;11.76;nan
9277;BME280;4676;42.678;23.244;2023-04-08T10:47:11;94194.03;;;12.25;nan
9277;BME280;4676;42.678;23.244;2023-04-08T10:49:39;94190.66;;;12.43;nan
9277;BME280;4676;42.678;23.244;2023-04-08T10:52:06;94174.72;;;11.83;nan
9277;BME280;4676;42.678;23.244;2023-04-08T10:54:33;94184.94;;;11.41;nan
9277;BME280;4676;42.678;23.244;2023-04-08T10:57:00;94188.25;;;11.43;nan
9277;BME280;4676;42.678;23.244;2023-04-08T10:59:27;94165.53;;;11.20;nan
9277;BME280;4676;42.678;23.244;2023-04-08T11:01:55;94183.09;;;11.65;nan
9277;BME280;4676;42.678;23.244;2023-04-08T11:04:22;94162.78;;;12.04;nan
9277;BME280;4676;42.678;23.244;2023-04-08T11:06:52;94147.53;;;12.41;nan
9277;BME280;4676;42.678;23.244;2023-04-08T11:09:19;94169.38;;;12.81;nan
9277;BME280;4676;42.678;23.244;2023-04-08T11:11:45;94171.56;;;13.06;nan
9277;BME280;4676;42.678;23.244;2023-04-08T11:14:15;94168.38;;;12.31;nan
9277;BME280;4676;42.678;23.244;2023-04-08T11:16:44;94162.22;;;12.53;nan
9277;BME280;4676;42.678;23.244;2023-04-08T11:19:12;94161.41;;;12.70;nan
9277;BME280;4676;42.678;23.244;2023-04-08T11:21:39;94150.03;;;13.13;nan
9277;BME280;4676;42.678;23.244;2023-04-08T11:24:09;94156.84;;;13.47;nan
9277;BME280;4676;42.678;23.244;2023-04-08T11:26:38;94150.56;;;13.37;nan
9277;BME280;4676;42.678;23.244;2023-04-08T11:29:06;94157.91;;;12.56;nan
9277;BME280;4676;42.678;23.244;2023-04-08T11:31:37;94146.53;;;12.27;nan
9277;BME280;4676;42.678;23.244;2023-04-08T11:34:03;94140.09;;;12.56;nan
9277;BME280;4676;42.678;23.244;2023-04-08T11:36:30;94149.69;;;12.13;nan
9277;BME280;4676;42.678;23.244;2023-04-08T11:38:59;94142.06;;;12.13;nan
9277;BME280;4676;42.678;23.244;2023-04-08T11:41:36;94138.28;;;12.58;nan
9277;BME280;4676;42.678;23.244;2023-04-08T11:44:04;94145.53;;;12.84;nan
9277;BME280;4676;42.678;23.244;2023-04-08T11:46:32;94131.34;;;12.61;nan
9277;BME280;4676;42.678;23.244;2023-04-08T11:49:03;94130.88;;;12.53;nan
9277;BME280;4676;42.678;23.244;2023-04-08T11:51:31;94122.53;;;12.85;nan
9277;BME280;4676;42.678;23.244;2023-04-08T11:53:58;94123.31;;;13.05;nan
9277;BME280;4676;42.678;23.244;2023-04-08T11:56:26;94125.28;;;13.17;nan
9277;BME280;4676;42.678;23.244;2023-04-08T11:58:56;94123.03;;;13.11;nan
9277;BME280;4676;42.678;23.244;2023-04-08T12:01:22;94124.34;;;13.00;nan
9277;BME280;4676;42.678;23.244;2023-04-08T12:03:54;94128.75;;;12.80;nan
9277;BME280;4676;42.678;23.244;2023-04-08T12:06:21;94124.16;;;12.52;nan
9277;BME280;4676;42.678;23.244;2023-04-08T12:08:48;94123.81;;;12.24;nan
9277;BME280;4676;42.678;23.244;2023-04-08T12:11:15;94114.38;;;12.26;nan
9277;BME280;4676;42.678;23.244;2023-04-08T12:13:42;94116.53;;;12.16;nan
9277;BME280;4676;42.678;23.244;2023-04-08T12:16:10;94109.59;;;12.01;nan
9277;BME280;4676;42.678;23.244;2023-04-08T12:18:38;94114.78;;;11.79;nan
9277;BME280;4676;42.678;23.244;2023-04-08T12:21:05;94122.03;;;11.49;nan
9277;BME280;4676;42.678;23.244;2023-04-08T12:23:32;94118.47;;;11.33;nan
9277;BME280;4676;42.678;23.244;2023-04-08T12:25:58;94108.09;;;11.39;nan
9277;BME280;4676;42.678;23.244;2023-04-08T12:28:25;94095.13;;;11.45;nan
9277;BME280;4676;42.678;23.244;2023-04-08T12:30:52;94089.84;;;11.50;nan
9277;BME280;4676;42.678;23.244;2023-04-08T12:33:20;94091.84;;;11.62;nan
9277;BME280;4676;42.678;23.244;2023-04-08T12:35:46;94095.91;;;11.66;nan
9277;BME280;4676;42.678;23.244;2023-04-08T12:38:13;94095.16;;;11.64;nan
9277;BME280;4676;42.678;23.244;2023-04-08T12:40:40;94091.34;;;11.74;nan
9277;BME280;4676;42.678;23.244;2023-04-08T12:43:06;94097.06;;;11.59;nan
9277;BME280;4676;42.678;23.244;2023-04-08T12:45:33;94094.97;;;11.48;nan
9277;BME280;4676;42.678;23.244;2023-04-08T12:48:00;94099.56;;;11.40;nan
9277;BME280;4676;42.678;23.244;2023-04-08T12:50:28;94102.78;;;11.44;nan
9277;BME280;4676;42.678;23.244;2023-04-08T12:52:55;94109.72;;;11.40;nan
9277;BME280;4676;42.678;23.244;2023-04-08T12:55:22;94108.63;;;11.46;nan
9277;BME280;4676;42.678;23.244;2023-04-08T12:57:50;94112.00;;;11.46;nan
9277;BME280;4676;42.678;23.244;2023-04-08T13:00:17;94101.34;;;11.38;nan
9277;BME280;4676;42.678;23.244;2023-04-08T13:02:44;94095.72;;;11.50;nan
9277;BME280;4676;42.678;23.244;2023-04-08T13:05:10;94089.25;;;11.64;nan
9277;BME280;4676;42.678;23.244;2023-04-08T13:07:38;94087.19;;;11.53;nan
9277;BME280;4676;42.678;23.244;2023-04-08T13:10:06;94069.47;;;11.33;nan
9277;BME280;4676;42.678;23.244;2023-04-08T13:12:34;94083.03;;;11.71;nan
9277;BME280;4676;42.678;23.244;2023-04-08T13:15:03;94087.56;;;12.01;nan
9277;BME280;4676;42.678;23.244;2023-04-08T13:17:30;94083.88;;;12.26;nan
9277;BME280;4676;42.678;23.244;2023-04-08T13:19:57;94090.94;;;12.02;nan
9277;BME280;4676;42.678;23.244;2023-04-08T13:22:26;94091.16;;;11.59;nan
9277;BME280;4676;42.678;23.244;2023-04-08T13:25:11;94088.06;;;11.52;nan
9277;BME280;4676;42.678;23.244;2023-04-08T13:27:41;94094.78;;;11.53;nan
9277;BME280;4676;42.678;23.244;2023-04-08T13:30:11;94097.09;;;11.39;nan
9277;BME280;4676;42.678;23.244;2023-04-08T13:32:38;94094.16;;;11.29;nan
9277;BME280;4676;42.678;23.244;2023-04-08T13:35:11;94098.56;;;10.84;nan
9277;BME280;4676;42.678;23.244;2023-04-08T13:38:12;94094.78;;;11.14;nan
9277;BME280;4676;42.678;23.244;2023-04-08T13:40:40;94088.06;;;11.52;nan
9277;BME280;4676;42.678;23.244;2023-04-08T13:43:08;94079.53;;;11.73;nan
9277;BME280;4676;42.678;23.244;2023-04-08T13:45:34;94089.25;;;11.82;nan
9277;BME280;4676;42.678;23.244;2023-04-08T13:48:01;94085.22;;;11.97;nan